Time;durP1;ratioP1;P1;durP2;ratioP2;P2;SDS_P1;SDS_P2;PMS_P1;PMS_P2;Temp;Humidity;BMP_temperature;BMP_pressure;BME280_temperature;BME280_humidity;BME280_pressure;Samples;Min_cycle;Max_cycle;Signal;HPM_P1;HPM_P2
2024/01/01 00:01:17;;;;;;;32.08;15.63;;;7.10;99.90;;;;;;5000768;28;20045;-67
2024/01/01 00:03:43;;;;;;;26.73;14.13;;;7.00;1.00;;;;;;4983143;28;20083;-67
2024/01/01 00:06:09;;;;;;;30.20;14.48;;;7.10;99.90;;;;;;5001121;28;20044;-66
2024/01/01 00:08:35;;;;;;;24.38;14.32;;;7.10;99.90;;;;;;5009171;28;20261;-66
2024/01/01 00:11:01;;;;;;;32.92;16.90;;;7.20;99.90;;;;;;5039998;28;20052;-67
2024/01/01 00:13:26;;;;;;;38.97;17.92;;;7.20;99.90;;;;;;5035575;28;20481;-67
2024/01/01 00:15:52;;;;;;;39.63;21.05;;;7.30;99.90;;;;;;5029493;28;21868;-69
2024/01/01 00:18:17;;;;;;;41.33;21.27;;;7.30;99.90;;;;;;5033803;28;20476;-67
2024/01/01 00:20:44;;;;;;;41.65;23.50;;;7.30;99.90;;;;;;5031962;28;20065;-66
2024/01/01 00:23:09;;;;;;;44.65;23.17;;;7.40;99.90;;;;;;5034659;28;20259;-67
2024/01/01 00:25:36;;;;;;;49.28;25.58;;;7.30;99.90;;;;;;5030193;28;20045;-66
2024/01/01 00:28:06;;;;;;;50.42;25.08;;;7.30;99.90;;;;;;5034763;28;20466;-67
2024/01/01 00:30:32;;;;;;;45.95;25.58;;;7.40;99.90;;;;;;5037822;28;20139;-67
2024/01/01 00:32:57;;;;;;;50.92;26.90;;;7.30;99.90;;;;;;5040097;28;20072;-68
2024/01/01 00:35:23;;;;;;;55.00;28.63;;;7.40;99.90;;;;;;5016421;28;20045;-67
2024/01/01 00:37:49;;;;;;;51.83;26.33;;;7.40;99.90;;;;;;5026333;28;20029;-66
2024/01/01 00:40:15;;;;;;;58.85;28.27;;;7.50;99.90;;;;;;5033463;28;20086;-67
2024/01/01 00:42:42;;;;;;;50.92;27.05;;;7.40;99.90;;;;;;5031601;28;20137;-68
2024/01/01 00:45:09;;;;;;;50.40;25.08;;;7.50;99.90;;;;;;5032046;28;20038;-67
2024/01/01 00:47:34;;;;;;;45.22;25.25;;;7.50;99.90;;;;;;5030854;28;20050;-67
2024/01/01 00:50:00;;;;;;;50.80;24.33;;;7.60;99.90;;;;;;5031168;28;20119;-66
2024/01/01 00:52:26;;;;;;;45.13;23.10;;;7.60;99.90;;;;;;5035366;28;20037;-68
2024/01/01 00:54:52;;;;;;;41.58;22.15;;;7.60;99.90;;;;;;5034163;28;20385;-67
2024/01/01 00:57:18;;;;;;;43.25;21.45;;;7.60;99.90;;;;;;5014577;28;21094;-66
2024/01/01 00:59:44;;;;;;;39.90;18.90;;;7.70;99.90;;;;;;5030803;28;20025;-67
2024/01/01 01:02:09;;;;;;;40.05;18.85;;;7.70;99.90;;;;;;5026338;28;20030;-67
2024/01/01 01:04:35;;;;;;;41.65;18.88;;;7.60;99.90;;;;;;5030583;28;20073;-67
2024/01/01 01:07:01;;;;;;;42.40;19.15;;;7.70;99.90;;;;;;5031548;28;20315;-68
2024/01/01 01:09:26;;;;;;;38.85;19.48;;;7.70;99.90;;;;;;5029991;28;20053;-67
2024/01/01 01:11:52;;;;;;;36.80;17.70;;;7.60;99.90;;;;;;5027915;28;20059;-68
2024/01/01 01:14:18;;;;;;;35.55;18.85;;;7.70;99.90;;;;;;5030651;28;20041;-67
2024/01/01 01:16:43;;;;;;;38.35;16.73;;;7.60;99.90;;;;;;5036062;28;20179;-66
2024/01/01 01:19:09;;;;;;;33.40;16.33;;;7.60;99.90;;;;;;5034134;28;20037;-67
2024/01/01 01:21:35;;;;;;;36.80;16.65;;;7.60;99.90;;;;;;5029110;28;20041;-67
2024/01/01 01:24:00;;;;;;;31.92;15.60;;;7.70;99.90;;;;;;5032121;28;20037;-67
2024/01/01 01:26:26;;;;;;;29.17;15.25;;;7.80;99.90;;;;;;5026693;28;20391;-65
2024/01/01 01:28:52;;;;;;;31.58;14.88;;;7.80;99.90;;;;;;5028550;28;20040;-68
2024/01/01 01:31:17;;;;;;;32.42;15.70;;;7.70;99.90;;;;;;5008162;28;20521;-66
2024/01/01 01:33:43;;;;;;;30.98;15.68;;;7.80;99.90;;;;;;5028459;28;20037;-68
2024/01/01 01:36:13;;;;;;;33.33;17.40;;;7.50;99.90;;;;;;5029002;28;20769;-66
2024/01/01 01:38:39;;;;;;;37.42;19.13;;;7.30;99.90;;;;;;5028840;28;20079;-66
2024/01/01 01:41:05;;;;;;;41.75;20.92;;;7.10;99.90;;;;;;5046034;28;20033;-68
2024/01/01 01:43:30;;;;;;;41.67;20.30;;;7.00;99.90;;;;;;5014000;28;20186;-66
2024/01/01 01:45:58;;;;;;;48.83;22.88;;;6.90;99.90;;;;;;5036876;28;20068;-67
2024/01/01 01:48:25;;;;;;;45.40;23.02;;;6.90;99.90;;;;;;5031294;28;20137;-67
2024/01/01 01:50:51;;;;;;;47.38;24.42;;;6.90;99.90;;;;;;5041348;28;20218;-66
2024/01/01 01:53:24;;;;;;;49.97;24.55;;;7.00;99.90;;;;;;5044188;28;20120;-67
2024/01/01 01:55:52;;;;;;;47.88;24.35;;;7.00;99.90;;;;;;5015653;28;20049;-66
2024/01/01 01:58:18;;;;;;;47.58;24.60;;;6.90;99.90;;;;;;5034572;28;20069;-67
2024/01/01 02:00:47;;;;;;;49.53;26.13;;;6.90;99.90;;;;;;5030598;28;20083;-66
2024/01/01 02:03:13;;;;;;;54.05;26.75;;;6.90;99.90;;;;;;5030651;28;20136;-67
2024/01/01 02:05:39;;;;;;;53.05;25.48;;;7.00;99.90;;;;;;5030727;28;20203;-67
2024/01/01 02:08:06;;;;;;;55.53;26.42;;;7.20;99.90;;;;;;5026187;28;20061;-68
2024/01/01 02:10:32;;;;;;;50.90;24.42;;;7.30;99.90;;;;;;5041485;28;20053;-67
2024/01/01 02:12:59;;;;;;;53.42;25.42;;;7.30;99.90;;;;;;5034636;28;20044;-66
2024/01/01 02:15:25;;;;;;;54.42;26.73;;;7.30;99.90;;;;;;5027985;28;20521;-65
2024/01/01 02:17:51;;;;;;;56.00;26.90;;;7.30;99.90;;;;;;5038315;28;20470;-65
2024/01/01 02:20:17;;;;;;;51.13;25.58;;;7.20;99.90;;;;;;5037492;28;20087;-67
2024/01/01 02:22:42;;;;;;;50.08;25.60;;;7.20;99.90;;;;;;5036155;28;20079;-67
2024/01/01 02:25:09;;;;;;;46.38;24.40;;;7.10;99.90;;;;;;5034375;28;20382;-66
2024/01/01 02:27:39;;;;;;;49.58;25.52;;;7.10;99.90;;;;;;5037948;28;20517;-66
2024/01/01 02:30:10;;;;;;;52.58;25.48;;;7.10;99.90;;;;;;5039451;28;20083;-66
2024/01/01 02:32:37;;;;;;;48.85;24.65;;;7.30;99.90;;;;;;5032153;28;20037;-67
2024/01/01 02:35:07;;;;;;;51.25;24.00;;;7.20;99.90;;;;;;5041309;28;20037;-67
2024/01/01 02:37:33;;;;;;;45.00;23.65;;;7.20;99.90;;;;;;5027162;28;20037;-66
2024/01/01 02:39:59;;;;;;;50.47;24.15;;;7.10;99.90;;;;;;5026263;28;20056;-67
2024/01/01 02:42:24;;;;;;;48.15;22.45;;;7.20;99.90;;;;;;5029818;28;20037;-68
2024/01/01 02:44:50;;;;;;;37.70;20.02;;;7.20;99.90;;;;;;5032202;28;20102;-67
2024/01/01 02:47:16;;;;;;;43.00;20.52;;;7.20;99.90;;;;;;5029087;28;20037;-66
2024/01/01 02:49:42;;;;;;;35.00;17.98;;;7.20;99.90;;;;;;5019620;28;20433;-68
2024/01/01 02:52:08;;;;;;;30.40;16.30;;;7.20;99.90;;;;;;5026958;28;20045;-68
2024/01/01 02:54:33;;;;;;;32.85;15.55;;;7.30;99.90;;;;;;5026774;28;20079;-65
2024/01/01 02:56:59;;;;;;;28.73;14.23;;;7.30;99.90;;;;;;5033525;28;20048;-68
2024/01/01 02:59:25;;;;;;;29.00;14.00;;;7.10;99.90;;;;;;5032533;28;20292;-66
2024/01/01 03:01:50;;;;;;;26.98;13.30;;;6.90;19.20;;;;;;5034356;28;20388;-66
2024/01/01 03:04:16;;;;;;;25.73;12.57;;;6.60;99.90;;;;;;5035620;28;20034;-69
2024/01/01 03:06:41;;;;;;;25.67;13.25;;;6.50;99.90;;;;;;5029935;28;20141;-66
2024/01/01 03:09:08;;;;;;;21.58;10.00;;;6.40;99.90;;;;;;5049262;28;20338;-70
2024/01/01 03:11:33;;;;;;;21.45;10.27;;;6.40;99.90;;;;;;5039541;28;20401;-69
2024/01/01 03:13:59;;;;;;;24.23;9.80;;;6.30;99.90;;;;;;5030311;28;20040;-68
2024/01/01 03:16:24;;;;;;;19.77;7.60;;;6.30;99.90;;;;;;5012687;28;20116;-67
2024/01/01 03:18:50;;;;;;;20.98;8.73;;;6.30;99.90;;;;;;5031349;28;20465;-67
2024/01/01 03:21:16;;;;;;;18.02;8.05;;;6.30;99.90;;;;;;5021685;28;20059;-68
2024/01/01 03:23:42;;;;;;;16.00;7.43;;;6.30;99.90;;;;;;5023264;28;20072;-69
2024/01/01 03:26:08;;;;;;;14.00;6.93;;;6.30;99.90;;;;;;5027760;28;20049;-67
2024/01/01 03:28:34;;;;;;;19.95;6.22;;;6.30;99.90;;;;;;5038402;28;20129;-67
2024/01/01 03:31:00;;;;;;;13.40;5.72;;;6.30;99.90;;;;;;5039852;28;20263;-67
2024/01/01 03:33:32;;;;;;;11.23;5.13;;;6.30;99.90;;;;;;5039148;28;20054;-67
2024/01/01 03:35:58;;;;;;;9.90;4.43;;;6.30;99.90;;;;;;5044428;28;20075;-66
2024/01/01 03:38:23;;;;;;;11.00;4.30;;;6.30;99.90;;;;;;5045792;28;20111;-66
2024/01/01 03:40:49;;;;;;;15.20;4.75;;;6.20;99.90;;;;;;5020342;28;20033;-67
2024/01/01 03:43:15;;;;;;;10.32;4.57;;;6.20;1.00;;;;;;5031995;28;20040;-68
2024/01/01 03:45:41;;;;;;;9.77;4.93;;;6.20;1.00;;;;;;5032343;28;20049;-66
2024/01/01 03:48:08;;;;;;;12.38;4.18;;;6.10;1.00;;;;;;5040792;28;20475;-69
2024/01/01 03:50:33;;;;;;;7.88;3.78;;;6.20;1.00;;;;;;5033593;28;20474;-70
2024/01/01 03:52:59;;;;;;;8.60;3.70;;;6.10;7.60;;;;;;5032311;28;20042;-68
2024/01/01 03:55:24;;;;;;;10.88;3.08;;;6.20;1.00;;;;;;5040870;28;20057;-69
2024/01/01 03:57:50;;;;;;;7.25;3.35;;;6.10;1.00;;;;;;5040495;28;20041;-68
2024/01/01 04:00:16;;;;;;;9.20;3.10;;;5.90;1.00;;;;;;5022654;28;20048;-68
2024/01/01 04:02:41;;;;;;;6.97;3.38;;;6.10;1.00;;;;;;5039553;28;20038;-68
2024/01/01 04:05:09;;;;;;;9.52;3.15;;;5.90;27.10;;;;;;5042856;28;20040;-68
2024/01/01 04:07:35;;;;;;;7.80;3.00;;;6.40;38.10;;;;;;5049304;28;20044;-70
2024/01/01 04:10:03;;;;;;;8.07;3.28;;;6.20;65.10;;;;;;5037925;28;20037;-69
2024/01/01 04:12:28;;;;;;;9.35;2.80;;;6.20;79.40;;;;;;5038440;28;20080;-69
2024/01/01 04:14:54;;;;;;;9.90;3.13;;;6.30;68.10;;;;;;5041948;28;20109;-69
2024/01/01 04:17:19;;;;;;;9.07;2.67;;;5.70;77.80;;;;;;5038019;28;20048;-69
2024/01/01 04:19:47;;;;;;;10.00;2.65;;;5.90;81.60;;;;;;5014393;28;20501;-69
2024/01/01 04:22:14;;;;;;;12.88;3.17;;;6.20;35.30;;;;;;5032788;28;20048;-67
2024/01/01 04:24:41;;;;;;;9.73;2.95;;;5.90;15.70;;;;;;5030666;28;20033;-68
2024/01/01 04:27:07;;;;;;;6.93;2.25;;;6.20;1.00;;;;;;5030343;28;20108;-68
2024/01/01 04:29:33;;;;;;;7.60;2.50;;;5.90;1.00;;;;;;5021312;28;20133;-66
2024/01/01 04:31:58;;;;;;;6.18;2.95;;;6.00;1.00;;;;;;5020677;28;20077;-68
2024/01/01 04:34:24;;;;;;;9.73;2.30;;;6.10;1.00;;;;;;5037472;28;22693;-70
2024/01/01 04:36:50;;;;;;;5.82;1.95;;;5.80;1.00;;;;;;5042000;28;20049;-67
2024/01/01 04:39:15;;;;;;;10.43;2.60;;;6.10;1.00;;;;;;5037431;28;20358;-66
2024/01/01 04:41:41;;;;;;;8.38;2.47;;;6.00;1.00;;;;;;5036058;28;20094;-76
2024/01/01 04:44:06;;;;;;;10.88;2.30;;;6.00;1.00;;;;;;5042231;28;20040;-67
2024/01/01 04:46:32;;;;;;;6.85;2.55;;;6.20;95.40;;;;;;5033563;28;20048;-69
2024/01/01 04:48:58;;;;;;;9.02;2.53;;;5.90;99.90;;;;;;5030872;28;20033;-70
2024/01/01 04:51:23;;;;;;;10.35;2.40;;;6.20;99.90;;;;;;5028955;28;20038;-67
2024/01/01 04:53:49;;;;;;;10.10;2.40;;;6.20;99.90;;;;;;5026555;28;20124;-67
2024/01/01 04:56:16;;;;;;;9.18;2.70;;;5.70;99.90;;;;;;5010700;28;20493;-68
2024/01/01 04:58:43;;;;;;;9.95;2.83;;;5.90;99.90;;;;;;5028869;28;20163;-67
2024/01/01 05:01:08;;;;;;;8.35;2.83;;;6.30;99.90;;;;;;5014975;28;20048;-71
2024/01/01 05:03:34;;;;;;;8.70;2.55;;;6.30;99.90;;;;;;5041116;28;20037;-67
2024/01/01 05:05:59;;;;;;;9.10;2.97;;;5.90;99.90;;;;;;5028693;28;20128;-67
2024/01/01 05:08:25;;;;;;;8.73;2.80;;;5.70;99.90;;;;;;5014344;28;20615;-68
2024/01/01 05:10:51;;;;;;;13.55;3.22;;;6.30;99.90;;;;;;5011925;28;20064;-67
2024/01/01 05:13:16;;;;;;;15.10;3.15;;;6.40;99.90;;;;;;5027892;28;20148;-68
2024/01/01 05:15:43;;;;;;;9.75;2.92;;;6.40;99.90;;;;;;5016956;28;20049;-67
2024/01/01 05:18:09;;;;;;;13.25;3.17;;;6.40;99.90;;;;;;5028735;28;20392;-69
2024/01/01 05:20:35;;;;;;;16.45;3.60;;;5.60;99.90;;;;;;5044242;28;20415;-71
2024/01/01 05:23:01;;;;;;;13.43;3.10;;;5.80;99.90;;;;;;5027007;28;20549;-69
2024/01/01 05:25:27;;;;;;;10.27;2.92;;;6.40;99.90;;;;;;5033635;28;20128;-70
2024/01/01 05:27:52;;;;;;;10.75;3.17;;;6.40;99.90;;;;;;5014990;28;20389;-70
2024/01/01 05:30:18;;;;;;;15.88;3.78;;;6.40;99.90;;;;;;5030715;28;20467;-70
2024/01/01 05:32:43;;;;;;;20.77;4.05;;;5.70;99.90;;;;;;5035118;28;20403;-70
2024/01/01 05:35:09;;;;;;;15.57;3.78;;;6.00;99.90;;;;;;5032654;28;20037;-72
2024/01/01 05:37:35;;;;;;;20.17;3.72;;;5.90;99.90;;;;;;5029706;28;20079;-70
2024/01/01 05:40:01;;;;;;;13.23;3.55;;;5.80;99.90;;;;;;5033840;28;20029;-69
2024/01/01 05:42:28;;;;;;;13.80;3.40;;;6.20;99.90;;;;;;5031755;28;20464;-71
2024/01/01 05:44:53;;;;;;;10.55;3.78;;;5.90;99.90;;;;;;5027670;28;20053;-75
2024/01/01 05:47:19;;;;;;;16.88;3.88;;;5.90;99.90;;;;;;5028229;28;20102;-72
2024/01/01 05:49:45;;;;;;;10.85;3.25;;;6.40;99.90;;;;;;5035198;28;20037;-74
2024/01/01 05:52:11;;;;;;;13.35;3.60;;;5.90;99.90;;;;;;5038360;28;20044;-75
2024/01/01 05:54:36;;;;;;;15.20;3.60;;;5.80;99.90;;;;;;5030781;28;20518;-73
2024/01/01 05:57:02;;;;;;;13.98;3.92;;;6.50;99.90;;;;;;5014997;28;20049;-78
2024/01/01 05:59:28;;;;;;;12.82;4.28;;;5.90;99.90;;;;;;5037880;28;20043;-75
2024/01/01 06:01:54;;;;;;;14.80;3.92;;;5.90;99.90;;;;;;5039642;28;20469;-76
2024/01/01 06:04:19;;;;;;;12.20;3.10;;;6.50;99.90;;;;;;5030899;28;20064;-79
2024/01/01 06:06:45;;;;;;;13.25;4.05;;;6.20;99.90;;;;;;5030737;28;20048;-77
2024/01/01 06:09:10;;;;;;;10.60;2.85;;;6.10;99.90;;;;;;5043117;28;20040;-73
2024/01/01 06:11:36;;;;;;;14.52;3.67;;;6.40;99.90;;;;;;5040718;28;20033;-74
2024/01/01 06:14:02;;;;;;;15.70;3.65;;;6.00;99.90;;;;;;5031358;28;20132;-76
2024/01/01 06:16:28;;;;;;;14.18;3.33;;;6.50;99.90;;;;;;5031415;28;20048;-73
2024/01/01 06:18:54;;;;;;;14.00;3.88;;;6.00;99.90;;;;;;5036502;28;20034;-75
2024/01/01 06:21:20;;;;;;;14.85;3.70;;;6.00;99.90;;;;;;5029493;28;20400;-81
2024/01/01 06:23:46;;;;;;;19.08;4.07;;;6.00;99.90;;;;;;5035888;28;20041;-75
2024/01/01 06:26:13;;;;;;;15.82;3.80;;;6.50;99.90;;;;;;5027453;28;20034;-78
2024/01/01 06:28:39;;;;;;;14.55;3.78;;;6.00;99.90;;;;;;5036259;28;20522;-71
2024/01/01 06:31:04;;;;;;;13.73;4.22;;;6.00;99.90;;;;;;5042797;28;20061;-71
2024/01/01 06:33:30;;;;;;;14.45;3.55;;;6.50;99.90;;;;;;5023270;28;20362;-72
2024/01/01 06:35:55;;;;;;;14.88;3.70;;;6.50;99.90;;;;;;5027157;28;20136;-73
2024/01/01 06:38:21;;;;;;;13.90;3.75;;;6.00;99.90;;;;;;5028761;28;20541;-76
2024/01/01 06:40:47;;;;;;;13.07;3.67;;;6.50;99.90;;;;;;5040022;28;20044;-72
2024/01/01 06:43:13;;;;;;;10.80;3.65;;;6.10;99.90;;;;;;5033626;28;20493;-73
2024/01/01 06:45:38;;;;;;;14.30;3.70;;;6.40;99.90;;;;;;5037543;28;20389;-71
2024/01/01 06:48:04;;;;;;;12.18;3.80;;;6.40;99.90;;;;;;5037421;28;20041;-71
2024/01/01 06:50:30;;;;;;;11.35;3.50;;;6.40;99.90;;;;;;5030974;28;20273;-72
2024/01/01 06:52:56;;;;;;;15.20;4.10;;;6.50;99.90;;;;;;5024600;28;20045;-72
2024/01/01 06:55:24;;;;;;;10.50;3.97;;;6.40;99.90;;;;;;5035992;28;20041;-69
2024/01/01 06:57:50;;;;;;;12.18;4.03;;;6.00;99.90;;;;;;5019998;28;20036;-70
2024/01/01 07:00:16;;;;;;;14.23;3.58;;;6.50;99.90;;;;;;5012880;28;20117;-75
2024/01/01 07:02:42;;;;;;;11.32;3.55;;;6.00;99.90;;;;;;5030742;28;20049;-72
2024/01/01 07:05:08;;;;;;;13.18;3.63;;;6.20;99.90;;;;;;5032869;28;20025;-75
2024/01/01 07:07:34;;;;;;;13.40;3.88;;;6.40;99.90;;;;;;5011157;28;20143;-71
2024/01/01 07:10:00;;;;;;;12.77;3.78;;;6.50;99.90;;;;;;5042677;28;20045;-72
2024/01/01 07:12:28;;;;;;;14.80;3.75;;;6.20;99.90;;;;;;5040195;28;20102;-72
2024/01/01 07:14:54;;;;;;;13.27;4.25;;;6.60;99.90;;;;;;5042776;28;20508;-71
2024/01/01 07:17:20;;;;;;;13.15;4.50;;;6.60;99.90;;;;;;5036520;28;20079;-72
2024/01/01 07:19:46;;;;;;;11.68;4.07;;;6.60;99.90;;;;;;5034579;28;20083;-71
2024/01/01 07:22:12;;;;;;;14.23;3.90;;;6.70;99.90;;;;;;5024264;28;20037;-70
2024/01/01 07:24:39;;;;;;;15.93;4.00;;;6.60;99.90;;;;;;5042900;28;20037;-72
2024/01/01 07:27:05;;;;;;;13.00;4.20;;;6.20;99.90;;;;;;5032811;28;20029;-70
2024/01/01 07:29:30;;;;;;;16.83;4.57;;;6.00;99.90;;;;;;5018987;28;20045;-69
2024/01/01 07:31:57;;;;;;;12.35;3.97;;;6.10;99.90;;;;;;5038654;28;20056;-73
2024/01/01 07:34:24;;;;;;;14.40;4.20;;;6.50;99.90;;;;;;5033207;28;20090;-71
2024/01/01 07:36:50;;;;;;;19.83;4.63;;;6.10;99.90;;;;;;5049050;28;20037;-70
2024/01/01 07:39:19;;;;;;;9.77;3.72;;;6.50;99.90;;;;;;5039674;28;20049;-74
2024/01/01 07:41:48;;;;;;;12.23;4.00;;;6.20;99.90;;;;;;5037713;28;20095;-73
2024/01/01 07:44:14;;;;;;;19.63;4.22;;;6.10;99.90;;;;;;5038416;28;20036;-72
2024/01/01 07:46:42;;;;;;;13.95;4.68;;;6.40;99.90;;;;;;5039470;28;20481;-75
2024/01/01 07:49:08;;;;;;;6.57;2.80;;;6.20;99.90;;;;;;5023014;28;20037;-71
2024/01/01 07:51:34;;;;;;;12.10;3.35;;;6.10;99.90;;;;;;5043152;28;20041;-72
2024/01/01 07:53:59;;;;;;;10.48;3.33;;;6.50;99.90;;;;;;5037669;28;20041;-72
2024/01/01 07:56:28;;;;;;;10.02;3.05;;;6.60;99.90;;;;;;5032374;28;20072;-71
2024/01/01 07:58:54;;;;;;;14.82;3.40;;;6.50;99.90;;;;;;5042185;28;20048;-70
2024/01/01 08:01:20;;;;;;;13.15;3.58;;;6.60;99.90;;;;;;5041283;28;20029;-72
2024/01/01 08:03:46;;;;;;;15.43;4.05;;;6.00;99.90;;;;;;5038892;28;20041;-75
2024/01/01 08:06:12;;;;;;;10.57;3.80;;;6.00;99.90;;;;;;5043358;28;20044;-72
2024/01/01 08:08:39;;;;;;;15.77;3.90;;;6.20;99.90;;;;;;5045365;28;20041;-70
2024/01/01 08:11:06;;;;;;;13.13;3.80;;;6.60;99.90;;;;;;5018461;28;20037;-75
2024/01/01 08:13:31;;;;;;;14.43;4.53;;;6.60;99.90;;;;;;5022365;28;20052;-72
2024/01/01 08:15:57;;;;;;;13.50;3.90;;;6.50;99.90;;;;;;5041193;28;20037;-71
2024/01/01 08:18:23;;;;;;;16.60;4.22;;;6.30;99.90;;;;;;5036783;28;20132;-72
2024/01/01 08:20:49;;;;;;;17.27;5.10;;;6.10;99.90;;;;;;5029641;28;20036;-77
2024/01/01 08:23:15;;;;;;;18.02;4.60;;;6.60;99.90;;;;;;5035609;28;20029;-71
2024/01/01 08:25:40;;;;;;;15.20;5.10;;;6.70;99.90;;;;;;5036124;28;22518;-69
2024/01/01 08:28:06;;;;;;;11.50;4.32;;;6.70;99.90;;;;;;5034395;28;20048;-70
2024/01/01 08:30:32;;;;;;;12.35;4.88;;;6.10;99.90;;;;;;5040008;28;20076;-72
2024/01/01 08:32:58;;;;;;;13.30;4.97;;;6.20;99.90;;;;;;5018818;28;20073;-74
2024/01/01 08:35:24;;;;;;;16.88;5.05;;;6.30;99.90;;;;;;5034048;28;20049;-71
2024/01/01 08:37:49;;;;;;;17.98;5.28;;;6.20;99.90;;;;;;5042408;28;20351;-69
2024/01/01 08:40:15;;;;;;;15.75;6.35;;;6.70;99.90;;;;;;5040881;28;20025;-71
2024/01/01 08:42:41;;;;;;;12.02;6.03;;;6.20;99.90;;;;;;5038807;28;20499;-73
2024/01/01 08:45:07;;;;;;;14.18;4.25;;;6.20;99.90;;;;;;5036475;28;20099;-71
2024/01/01 08:47:33;;;;;;;8.80;3.40;;;6.40;99.90;;;;;;5021690;28;20095;-73
2024/01/01 08:49:59;;;;;;;6.32;2.20;;;6.20;99.90;;;;;;5029243;28;20083;-76
2024/01/01 08:52:25;;;;;;;4.50;1.50;;;6.00;99.90;;;;;;5043274;28;20039;-74
2024/01/01 08:54:51;;;;;;;5.20;1.30;;;5.90;99.90;;;;;;5041944;28;20441;-72
2024/01/01 08:57:16;;;;;;;6.85;1.70;;;5.80;99.90;;;;;;5033240;28;20621;-75
2024/01/01 08:59:42;;;;;;;10.05;3.60;;;5.80;99.90;;;;;;5037188;28;20033;-73
2024/01/01 09:02:09;;;;;;;15.63;6.72;;;5.90;99.90;;;;;;5037611;28;20037;-74
2024/01/01 09:04:34;;;;;;;11.80;5.88;;;6.50;99.90;;;;;;5032937;28;20076;-75
2024/01/01 09:07:02;;;;;;;17.30;8.13;;;6.00;99.90;;;;;;5021257;28;20053;-76
2024/01/01 09:09:28;;;;;;;23.25;12.68;;;6.20;99.90;;;;;;5015070;28;20041;-72
2024/01/01 09:11:54;;;;;;;18.95;8.50;;;6.70;99.90;;;;;;5034087;28;20033;-75
2024/01/01 09:14:20;;;;;;;20.92;8.38;;;6.80;99.90;;;;;;5044288;28;20044;-73
2024/01/01 09:16:45;;;;;;;31.30;14.60;;;6.20;99.90;;;;;;5030834;28;20038;-71
2024/01/01 09:19:11;;;;;;;18.52;10.38;;;6.70;99.90;;;;;;5025672;28;20040;-71
2024/01/01 09:21:38;;;;;;;21.73;9.07;;;6.50;99.90;;;;;;5038380;28;20112;-72
2024/01/01 09:24:05;;;;;;;18.50;8.80;;;6.80;99.90;;;;;;5019600;28;20041;-71
2024/01/01 09:26:31;;;;;;;20.63;9.10;;;6.40;99.90;;;;;;5044394;28;20362;-69
2024/01/01 09:28:57;;;;;;;19.63;8.75;;;6.80;99.90;;;;;;5045662;28;20048;-68
2024/01/01 09:31:23;;;;;;;16.83;6.38;;;6.50;99.90;;;;;;5017428;28;20041;-72
2024/01/01 09:33:49;;;;;;;14.68;6.05;;;6.70;99.90;;;;;;5028383;28;20147;-72
2024/01/01 09:36:15;;;;;;;14.60;5.07;;;6.70;99.90;;;;;;5029406;28;20052;-71
2024/01/01 09:38:42;;;;;;;9.63;3.75;;;7.00;99.90;;;;;;5041368;28;20045;-70
2024/01/01 09:41:13;;;;;;;11.35;3.67;;;6.90;99.90;;;;;;5031199;28;20045;-74
2024/01/01 09:43:44;;;;;;;10.27;3.67;;;6.80;99.90;;;;;;5033710;28;20049;-71
2024/01/01 09:46:10;;;;;;;12.02;3.85;;;7.10;99.90;;;;;;5033112;28;20094;-71
2024/01/01 09:48:36;;;;;;;11.00;3.70;;;6.90;99.90;;;;;;5047984;28;20426;-71
2024/01/01 09:51:03;;;;;;;12.23;3.53;;;6.70;99.90;;;;;;5013095;28;20135;-72
2024/01/01 09:53:30;;;;;;;12.25;3.88;;;7.00;99.90;;;;;;5030382;28;20041;-71
2024/01/01 09:55:56;;;;;;;11.65;5.90;;;6.70;99.90;;;;;;5021388;28;20043;-72
2024/01/01 09:58:22;;;;;;;14.13;5.30;;;7.00;99.90;;;;;;5050243;28;20048;-71
2024/01/01 10:00:50;;;;;;;12.52;4.10;;;6.50;99.90;;;;;;5037342;28;20048;-72
2024/01/01 10:03:16;;;;;;;14.10;3.97;;;6.50;99.90;;;;;;5045551;28;20037;-72
2024/01/01 10:05:41;;;;;;;12.10;4.20;;;6.90;99.90;;;;;;5030066;28;20056;-70
2024/01/01 10:08:12;;;;;;;16.65;4.47;;;6.60;99.90;;;;;;5030647;28;20103;-73
2024/01/01 10:10:38;;;;;;;;;;;6.50;99.90;;;;;;5040783;28;20851;-69
2024/01/01 10:13:14;;;;;;;10.20;3.50;;;6.70;99.90;;;;;;5036996;28;19917;-70
2024/01/01 10:15:41;;;;;;;12.93;4.13;;;6.50;99.90;;;;;;5029177;28;20047;-70
2024/01/01 10:18:12;;;;;;;11.55;4.05;;;6.60;99.90;;;;;;5036185;28;20087;-71
2024/01/01 10:20:39;;;;;;;13.70;3.47;;;6.70;99.90;;;;;;5043577;28;20037;-69
2024/01/01 10:23:20;;;;;;;11.35;3.47;;;6.80;99.90;;;;;;5035058;28;20075;-70
2024/01/01 10:26:00;;;;;;;11.85;2.95;;;6.50;99.90;;;;;;5037747;28;20132;-72
2024/01/01 10:28:28;;;;;;;15.70;2.50;;;6.70;99.90;;;;;;5030751;28;20052;-69
2024/01/01 10:30:54;;;;;;;10.50;3.17;;;6.50;99.90;;;;;;5030944;28;20066;-69
2024/01/01 10:33:21;;;;;;;10.13;2.80;;;6.50;99.90;;;;;;5034048;28;20048;-70
2024/01/01 10:35:47;;;;;;;12.45;3.42;;;7.00;99.90;;;;;;5038973;28;20095;-71
2024/01/01 10:38:13;;;;;;;12.73;3.70;;;6.70;99.90;;;;;;5049624;28;20421;-72
2024/01/01 10:40:40;;;;;;;12.77;4.18;;;7.00;99.90;;;;;;5032262;28;20041;-70
2024/01/01 10:43:07;;;;;;;10.57;2.70;;;6.90;99.90;;;;;;5030525;28;20038;-70
2024/01/01 10:45:32;;;;;;;11.75;3.33;;;6.90;99.90;;;;;;5021122;28;20041;-71
2024/01/01 10:48:00;;;;;;;10.10;2.90;;;7.10;99.90;;;;;;5029441;28;20041;-69
2024/01/01 10:50:32;;;;;;;8.35;2.70;;;7.10;99.90;;;;;;5029430;28;20060;-68
2024/01/01 10:53:36;;;;;;;7.60;2.35;;;6.80;99.90;;;;;;5042782;28;20045;-72
2024/01/01 10:56:17;;;;;;;9.77;2.30;;;7.10;99.90;;;;;;5034918;28;20053;-71
2024/01/01 10:59:06;;;;;;;5.60;2.10;;;7.10;99.90;;;;;;5029353;28;20490;-69
2024/01/01 11:01:32;;;;;;;9.15;2.03;;;7.00;99.90;;;;;;5026303;28;20037;-70
2024/01/01 11:03:58;;;;;;;10.32;3.05;;;7.20;99.90;;;;;;5036340;28;20470;-71
2024/01/01 11:06:29;;;;;;;12.40;5.15;;;7.10;99.90;;;;;;5012330;28;20099;-75
2024/01/01 11:08:56;;;;;;;10.75;2.22;;;7.10;99.90;;;;;;5029584;28;20053;-67
2024/01/01 11:11:30;;;;;;;8.77;2.10;;;7.20;99.90;;;;;;5045377;28;20041;-72
2024/01/01 11:13:57;;;;;;;5.15;2.20;;;7.30;99.90;;;;;;5039172;28;20520;-70
2024/01/01 11:16:23;;;;;;;8.55;1.98;;;7.00;99.90;;;;;;5030616;28;20037;-71
2024/01/01 11:18:50;;;;;;;13.48;2.08;;;7.20;99.90;;;;;;5032970;28;20095;-68
2024/01/01 11:21:27;;;;;;;13.93;3.22;;;6.90;99.90;;;;;;5045833;28;20048;-74
2024/01/01 11:23:53;;;;;;;7.88;2.08;;;7.10;99.90;;;;;;5029753;28;20037;-70
2024/01/01 11:26:35;;;;;;;7.65;2.42;;;7.10;99.90;;;;;;5041737;28;20533;-70
2024/01/01 11:29:17;;;;;;;7.18;2.40;;;6.90;99.90;;;;;;5036731;28;20030;-73
2024/01/01 11:31:43;;;;;;;7.30;2.83;;;6.90;99.90;;;;;;5046910;28;20128;-71
2024/01/01 11:34:14;;;;;;;9.60;2.50;;;7.00;99.90;;;;;;5033274;28;20239;-70
2024/01/01 11:36:40;;;;;;;8.18;2.22;;;7.10;99.90;;;;;;5047079;28;20052;-70
2024/01/01 11:39:06;;;;;;;7.20;2.22;;;6.90;99.90;;;;;;5040189;28;20053;-70
2024/01/01 11:41:33;;;;;;;8.52;1.83;;;6.90;99.90;;;;;;5040564;28;20038;-71
2024/01/01 11:44:12;;;;;;;11.60;2.28;;;6.90;99.90;;;;;;5038147;28;20036;-71
2024/01/01 11:46:39;;;;;;;6.75;2.20;;;7.20;99.90;;;;;;5047792;28;20033;-68
2024/01/01 11:49:05;;;;;;;9.15;1.75;;;7.00;99.90;;;;;;5046277;28;20688;-70
2024/01/01 11:51:32;;;;;;;11.45;2.08;;;6.90;99.90;;;;;;5016733;28;20132;-68
2024/01/01 11:54:26;;;;;;;8.80;1.70;;;6.90;99.90;;;;;;5048619;28;20045;-70
2024/01/01 11:56:56;;;;;;;9.00;1.30;;;6.90;99.90;;;;;;5031522;28;20482;-70
2024/01/01 11:59:24;;;;;;;8.70;2.78;;;7.00;99.90;;;;;;5017171;28;20034;-71
2024/01/01 12:01:50;;;;;;;9.60;1.40;;;7.00;99.90;;;;;;5032274;28;20041;-71
2024/01/01 12:04:17;;;;;;;8.43;1.80;;;7.10;99.90;;;;;;5016157;28;20045;-69
2024/01/01 12:06:48;;;;;;;10.02;2.10;;;6.90;99.90;;;;;;5031672;28;20041;-70
2024/01/01 12:09:14;;;;;;;11.65;2.38;;;7.00;99.90;;;;;;5036852;28;20124;-73
2024/01/01 12:11:41;;;;;;;9.05;1.83;;;6.90;99.90;;;;;;5034967;28;20493;-74
2024/01/01 12:14:07;;;;;;;11.73;2.00;;;7.30;99.90;;;;;;5042373;28;20421;-73
2024/01/01 12:16:34;;;;;;;11.52;1.95;;;7.00;99.90;;;;;;5038239;28;20041;-69
2024/01/01 12:19:02;;;;;;;7.70;1.58;;;7.40;99.90;;;;;;5052019;28;20094;-70
2024/01/01 12:21:40;;;;;;;7.75;1.98;;;7.40;99.90;;;;;;5039959;28;20037;-70
2024/01/01 12:24:08;;;;;;;9.23;1.80;;;7.20;99.90;;;;;;5041912;28;20059;-71
2024/01/01 12:26:35;;;;;;;10.15;2.10;;;6.90;99.90;;;;;;5034251;28;20041;-72
2024/01/01 12:29:09;;;;;;;12.50;1.88;;;6.90;99.90;;;;;;5039072;28;20488;-71
2024/01/01 12:31:36;;;;;;;7.80;2.22;;;7.20;99.90;;;;;;5051459;28;20096;-71
2024/01/01 12:34:02;;;;;;;11.55;2.22;;;7.20;99.90;;;;;;5032316;28;20041;-69
2024/01/01 12:36:28;;;;;;;12.73;2.20;;;7.10;99.90;;;;;;5046373;28;20033;-71
2024/01/01 12:38:53;;;;;;;12.50;2.00;;;6.80;71.90;;;;;;5041037;28;20489;-72
2024/01/01 12:41:20;;;;;;;15.88;2.60;;;7.20;99.00;;;;;;5048156;28;20041;-71
2024/01/01 12:43:46;;;;;;;10.80;1.92;;;6.80;99.90;;;;;;5033790;28;20029;-73
2024/01/01 12:46:15;;;;;;;14.57;2.40;;;7.10;99.90;;;;;;5044563;28;20544;-70